Time;durP1;ratioP1;P1;durP2;ratioP2;P2;SDS_P1;SDS_P2;PMS_P1;PMS_P2;Temp;Humidity;BMP_temperature;BMP_pressure;BME280_temperature;BME280_humidity;BME280_pressure;Samples;Min_cycle;Max_cycle;Signal;HPM_P1;HPM_P2
2022/10/17 00:01:04;;;;;;;8.43;7.70;;;;;;;;;;1845627;74;611692;-86
2022/10/17 00:03:33;;;;;;;7.53;6.83;;;;;;;;;;1769347;78;613632;-86
2022/10/17 00:06:02;;;;;;;8.77;7.60;;;;;;;;;;1790400;77;612223;-86
2022/10/17 00:08:31;;;;;;;8.80;7.77;;;;;;;;;;1819459;77;613843;-86
2022/10/17 00:11:01;;;;;;;9.57;8.30;;;;;;;;;;1819454;77;611693;-86
2022/10/17 00:13:29;;;;;;;10.17;8.30;;;;;;;;;;1811701;77;613621;-86
2022/10/17 00:15:57;;;;;;;8.30;7.60;;;;;;;;;;1819467;77;613791;-85
2022/10/17 00:18:26;;;;;;;9.20;7.53;;;;;;;;;;1811559;77;613687;-86
2022/10/17 00:20:54;;;;;;;9.03;8.13;;;;;;;;;;1819637;77;611838;-86
2022/10/17 00:23:23;;;;;;;8.70;7.97;;;;;;;;;;1811570;77;612797;-86
2022/10/17 00:25:58;;;;;;;7.93;7.20;;;;;;;;;;1819533;77;610883;-87
2022/10/17 00:28:26;;;;;;;10.43;7.90;;;;;;;;;;1811712;77;613590;-85
2022/10/17 00:30:58;;;;;;;13.10;7.67;;;;;;;;;;1819597;77;613986;-87
2022/10/17 00:33:27;;;;;;;9.60;7.03;;;;;;;;;;1811459;77;615652;-87
2022/10/17 00:36:03;;;;;;;8.47;7.40;;;;;;;;;;1819398;77;611713;-88
2022/10/17 00:38:31;;;;;;;11.73;7.50;;;;;;;;;;1819276;77;613833;-87
2022/10/17 00:41:00;;;;;;;14.83;7.17;;;;;;;;;;1819522;77;612982;-86
2022/10/17 00:43:29;;;;;;;9.70;6.87;;;;;;;;;;1811523;77;615014;-85
2022/10/17 00:45:57;;;;;;;9.80;6.80;;;;;;;;;;1819498;77;611516;-86
2022/10/17 00:48:25;;;;;;;10.43;7.17;;;;;;;;;;1811738;77;613838;-86
2022/10/17 00:50:54;;;;;;;12.50;7.70;;;;;;;;;;1819573;77;613869;-86
2022/10/17 00:53:23;;;;;;;11.90;8.20;;;;;;;;;;1811480;77;615685;-85
2022/10/17 00:55:52;;;;;;;12.60;8.20;;;;;;;;;;1838135;75;612962;-85
2022/10/17 00:58:21;;;;;;;9.30;8.00;;;;;;;;;;1843908;75;615712;-84
2022/10/17 01:00:49;;;;;;;9.23;7.80;;;;;;;;;;1852323;75;612992;-86
2022/10/17 01:03:19;;;;;;;10.40;7.93;;;;;;;;;;1843785;75;613937;-84
2022/10/17 01:05:47;;;;;;;9.70;8.23;;;;;;;;;;1852121;75;615877;-86
2022/10/17 01:08:15;;;;;;;10.10;7.87;;;;;;;;;;1824753;76;613765;-86
2022/10/17 01:10:47;;;;;;;11.27;8.03;;;;;;;;;;1835630;76;614928;-84
2022/10/17 01:13:17;;;;;;;8.67;7.70;;;;;;;;;;1827964;76;625451;-87
2022/10/17 01:15:49;;;;;;;10.90;7.80;;;;;;;;;;1820637;76;613625;-85
2022/10/17 01:18:21;;;;;;;12.77;7.97;;;;;;;;;;1809929;77;615810;-86
2022/10/17 01:20:58;;;;;;;12.17;8.20;;;;;;;;;;1817562;77;615636;-86
2022/10/17 01:23:39;;;;;;;10.60;7.90;;;;;;;;;;1810120;77;614816;-86
2022/10/17 01:26:09;;;;;;;10.70;7.50;;;;;;;;;;1809581;77;615675;-86
2022/10/17 01:28:43;;;;;;;10.50;8.20;;;;;;;;;;1817656;77;615731;-84
2022/10/17 01:31:14;;;;;;;10.73;8.23;;;;;;;;;;1809990;77;614908;-86
2022/10/17 01:33:48;;;;;;;16.27;7.53;;;;;;;;;;1817554;77;615790;-86
2022/10/17 01:36:19;;;;;;;11.03;7.30;;;;;;;;;;1809825;77;615664;-86
2022/10/17 01:38:49;;;;;;;10.37;7.20;;;;;;;;;;1817616;77;615628;-86
2022/10/17 01:41:19;;;;;;;13.80;7.13;;;;;;;;;;1809738;77;615758;-87
2022/10/17 01:43:49;;;;;;;10.53;7.00;;;;;;;;;;1817947;77;615972;-85
2022/10/17 01:46:19;;;;;;;14.33;7.70;;;;;;;;;;1809925;77;615638;-87
2022/10/17 01:48:47;;;;;;;13.13;7.20;;;;;;;;;;1817756;77;614870;-85
2022/10/17 01:51:17;;;;;;;12.30;7.00;;;;;;;;;;1810111;77;615618;-86
2022/10/17 01:53:47;;;;;;;12.00;7.37;;;;;;;;;;1817515;77;615663;-86
2022/10/17 01:56:17;;;;;;;11.87;7.53;;;;;;;;;;1809643;77;614954;-86
2022/10/17 01:58:47;;;;;;;14.00;7.27;;;;;;;;;;1817967;77;615728;-86
2022/10/17 02:01:16;;;;;;;14.07;8.13;;;;;;;;;;1810097;76;615715;-85
2022/10/17 02:03:45;;;;;;;13.13;7.37;;;;;;;;;;1818167;77;615845;-85
2022/10/17 02:06:14;;;;;;;11.70;7.37;;;;;;;;;;1810185;77;615907;-87
2022/10/17 02:08:43;;;;;;;8.93;7.20;;;;;;;;;;1817659;77;615681;-84
2022/10/17 02:11:13;;;;;;;12.73;7.57;;;;;;;;;;1809551;77;613619;-84
2022/10/17 02:13:44;;;;;;;16.73;8.20;;;;;;;;;;1818201;77;615725;-85
2022/10/17 02:16:14;;;;;;;15.17;7.47;;;;;;;;;;1809627;77;615659;-86
2022/10/17 02:18:57;;;;;;;13.57;7.40;;;;;;;;;;1817840;76;614994;-83
2022/10/17 02:21:29;;;;;;;17.83;7.07;;;;;;;;;;1809758;77;615644;-86
2022/10/17 02:23:59;;;;;;;10.83;7.83;;;;;;;;;;1817923;77;613999;-85
2022/10/17 02:26:29;;;;;;;17.00;7.57;;;;;;;;;;1810200;77;615815;-87
2022/10/17 02:29:00;;;;;;;13.63;7.57;;;;;;;;;;1817980;77;613617;-85
2022/10/17 02:31:30;;;;;;;14.77;7.50;;;;;;;;;;1810249;77;615837;-86
2022/10/17 02:34:00;;;;;;;16.50;7.30;;;;;;;;;;1817882;77;613922;-85
2022/10/17 02:36:30;;;;;;;15.90;7.43;;;;;;;;;;1810105;76;615781;-85
2022/10/17 02:39:00;;;;;;;16.83;7.80;;;;;;;;;;1817935;77;613794;-86
2022/10/17 02:41:30;;;;;;;16.00;8.00;;;;;;;;;;1809942;77;615766;-86
2022/10/17 02:43:58;;;;;;;14.17;7.70;;;;;;;;;;1817958;77;613828;-84
2022/10/17 02:46:27;;;;;;;11.23;7.87;;;;;;;;;;1810067;77;615770;-85
2022/10/17 02:48:57;;;;;;;13.93;8.50;;;;;;;;;;1817920;77;614243;-84
2022/10/17 02:51:27;;;;;;;16.20;8.03;;;;;;;;;;1809892;77;615707;-86
2022/10/17 02:54:00;;;;;;;15.47;7.63;;;;;;;;;;1818793;76;613932;-84
2022/10/17 02:56:30;;;;;;;13.47;7.50;;;;;;;;;;1776609;78;615655;-86
2022/10/17 02:58:59;;;;;;;13.20;7.63;;;;;;;;;;1766945;79;613933;-85
2022/10/17 03:01:29;;;;;;;15.27;8.10;;;;;;;;;;1810106;77;615794;-84
2022/10/17 03:04:05;;;;;;;15.20;8.13;;;;;;;;;;1817860;77;613807;-86
2022/10/17 03:06:33;;;;;;;15.73;7.93;;;;;;;;;;1817730;77;615757;-85
2022/10/17 03:09:02;;;;;;;17.43;8.97;;;;;;;;;;1818083;77;614072;-86
2022/10/17 03:11:32;;;;;;;16.40;8.03;;;;;;;;;;1809696;76;615773;-85
2022/10/17 03:14:00;;;;;;;12.30;8.00;;;;;;;;;;1816774;77;613908;-86
2022/10/17 03:16:28;;;;;;;13.20;8.07;;;;;;;;;;1809410;77;615704;-87
2022/10/17 03:18:57;;;;;;;17.37;8.33;;;;;;;;;;1817743;77;613724;-85
2022/10/17 03:21:25;;;;;;;14.40;8.07;;;;;;;;;;1810149;75;615785;-85
2022/10/17 03:23:53;;;;;;;18.90;8.40;;;;;;;;;;1818009;77;613952;-85
2022/10/17 03:26:22;;;;;;;18.30;8.33;;;;;;;;;;1809860;77;615748;-85
2022/10/17 03:28:50;;;;;;;16.60;8.53;;;;;;;;;;1817743;77;615733;-85
2022/10/17 03:31:18;;;;;;;18.07;9.00;;;;;;;;;;1809880;77;616409;-84
2022/10/17 03:33:46;;;;;;;16.93;7.97;;;;;;;;;;1818048;77;615017;-84
2022/10/17 03:36:16;;;;;;;15.20;8.13;;;;;;;;;;1810068;77;614857;-85
2022/10/17 03:38:45;;;;;;;16.27;8.17;;;;;;;;;;1817737;77;615968;-86
2022/10/17 03:41:13;;;;;;;17.17;8.43;;;;;;;;;;1809789;77;615802;-86
2022/10/17 03:43:42;;;;;;;16.47;8.13;;;;;;;;;;1817914;77;615809;-85
2022/10/17 03:46:10;;;;;;;15.20;9.07;;;;;;;;;;1810201;77;615769;-86
2022/10/17 03:48:38;;;;;;;16.57;8.33;;;;;;;;;;1817694;77;615841;-85
2022/10/17 03:51:08;;;;;;;19.07;8.43;;;;;;;;;;1809859;77;615805;-85
2022/10/17 03:53:37;;;;;;;15.03;7.70;;;;;;;;;;1817935;77;615843;-84
2022/10/17 03:56:12;;;;;;;20.07;8.27;;;;;;;;;;1817796;77;613860;-85
2022/10/17 03:58:40;;;;;;;17.03;8.73;;;;;;;;;;1818018;77;615737;-86
2022/10/17 04:01:10;;;;;;;14.20;8.23;;;;;;;;;;1802282;77;615090;-86
2022/10/17 04:03:38;;;;;;;17.03;8.77;;;;;;;;;;1817973;77;615743;-85
2022/10/17 04:06:07;;;;;;;20.67;9.20;;;;;;;;;;1809831;77;615958;-85
2022/10/17 04:08:35;;;;;;;16.80;9.27;;;;;;;;;;1817567;77;615744;-85
2022/10/17 04:11:06;;;;;;;23.37;9.17;;;;;;;;;;1818074;75;613905;-85
2022/10/17 04:13:35;;;;;;;17.63;8.43;;;;;;;;;;1817946;77;615955;-85
2022/10/17 04:16:04;;;;;;;22.97;9.50;;;;;;;;;;1817632;77;613776;-86
2022/10/17 04:18:32;;;;;;;12.40;8.50;;;;;;;;;;1817772;77;615803;-86
2022/10/17 04:21:02;;;;;;;16.83;8.63;;;;;;;;;;1817648;77;613813;-85
2022/10/17 04:23:30;;;;;;;13.70;8.20;;;;;;;;;;1810226;77;615857;-85
2022/10/17 04:25:58;;;;;;;23.17;9.23;;;;;;;;;;1818070;77;614017;-87
2022/10/17 04:28:27;;;;;;;17.87;9.23;;;;;;;;;;1809895;77;615811;-85
2022/10/17 04:30:56;;;;;;;18.57;8.53;;;;;;;;;;1817942;77;613844;-85
2022/10/17 04:33:25;;;;;;;25.43;9.37;;;;;;;;;;1810274;77;615006;-85
2022/10/17 04:35:57;;;;;;;19.83;8.80;;;;;;;;;;1817820;77;613130;-86
2022/10/17 04:38:27;;;;;;;21.37;9.20;;;;;;;;;;1810165;77;615816;-84
2022/10/17 04:40:56;;;;;;;21.67;9.53;;;;;;;;;;1817711;77;613953;-85
2022/10/17 04:43:25;;;;;;;23.90;10.07;;;;;;;;;;1810074;77;625662;-85
2022/10/17 04:45:53;;;;;;;19.33;9.03;;;;;;;;;;1817965;77;616020;-85
2022/10/17 04:48:21;;;;;;;19.73;9.27;;;;;;;;;;1809914;77;615725;-85
2022/10/17 04:51:00;;;;;;;22.53;8.83;;;;;;;;;;1817856;77;614894;-85
2022/10/17 04:53:30;;;;;;;17.23;8.70;;;;;;;;;;1810021;77;615177;-86
2022/10/17 04:55:58;;;;;;;25.37;9.40;;;;;;;;;;1817404;77;613768;-85
2022/10/17 04:58:28;;;;;;;24.07;9.93;;;;;;;;;;1809810;77;615701;-84
2022/10/17 05:00:56;;;;;;;17.53;9.37;;;;;;;;;;1817643;77;613825;-85
2022/10/17 05:03:25;;;;;;;21.23;9.47;;;;;;;;;;1810298;77;615891;-85
2022/10/17 05:05:53;;;;;;;18.97;9.93;;;;;;;;;;1817628;77;614122;-85
2022/10/17 05:08:23;;;;;;;22.23;9.73;;;;;;;;;;1810198;77;615822;-85
2022/10/17 05:10:52;;;;;;;15.37;9.07;;;;;;;;;;1817981;77;613993;-86
2022/10/17 05:13:22;;;;;;;21.70;9.73;;;;;;;;;;1810056;77;615890;-86
2022/10/17 05:15:50;;;;;;;21.13;9.40;;;;;;;;;;1817789;77;614929;-85
2022/10/17 05:18:19;;;;;;;19.73;9.20;;;;;;;;;;1809900;77;615686;-84
2022/10/17 05:20:47;;;;;;;19.83;9.87;;;;;;;;;;1818103;77;615857;-85
2022/10/17 05:23:15;;;;;;;16.57;9.47;;;;;;;;;;1809907;77;615879;-86
2022/10/17 05:25:44;;;;;;;19.20;10.30;;;;;;;;;;1817332;77;615785;-85
2022/10/17 05:28:12;;;;;;;18.30;10.17;;;;;;;;;;1809615;77;617965;-85
2022/10/17 05:30:41;;;;;;;16.87;10.50;;;;;;;;;;1817571;76;617910;-85
2022/10/17 05:33:09;;;;;;;22.17;10.70;;;;;;;;;;1809463;77;617925;-84
2022/10/17 05:35:37;;;;;;;20.37;9.93;;;;;;;;;;1817703;77;617876;-84
2022/10/17 05:38:05;;;;;;;24.17;10.60;;;;;;;;;;1817537;77;613908;-85
2022/10/17 05:40:34;;;;;;;22.90;11.13;;;;;;;;;;1817472;77;617945;-84
2022/10/17 05:43:03;;;;;;;28.03;11.60;;;;;;;;;;1817479;77;616130;-85
2022/10/17 05:45:32;;;;;;;19.93;12.07;;;;;;;;;;1816918;77;617847;-87
2022/10/17 05:48:00;;;;;;;21.47;12.50;;;;;;;;;;1816760;77;615924;-87
2022/10/17 05:50:29;;;;;;;17.93;11.00;;;;;;;;;;1809420;77;616972;-85
2022/10/17 05:52:57;;;;;;;19.27;11.07;;;;;;;;;;1816814;77;616044;-85
2022/10/17 05:55:25;;;;;;;21.13;10.63;;;;;;;;;;1808994;77;617070;-87
2022/10/17 05:57:54;;;;;;;21.70;11.57;;;;;;;;;;1817083;77;615646;-88
2022/10/17 06:00:22;;;;;;;18.17;11.27;;;;;;;;;;1809606;76;617849;-85
2022/10/17 06:02:50;;;;;;;27.37;4.37;;;;;;;;;;1817392;77;617786;-86
2022/10/17 06:05:19;;;;;;;21.10;4.40;;;;;;;;;;1809633;77;615729;-84
2022/10/17 06:07:49;;;;;;;22.10;4.17;;;;;;;;;;1817490;77;614997;-84
2022/10/17 06:10:17;;;;;;;21.47;4.47;;;;;;;;;;1810001;77;615766;-86
2022/10/17 06:12:46;;;;;;;18.30;3.60;;;;;;;;;;1817428;77;615753;-85
2022/10/17 06:15:17;;;;;;;18.13;4.10;;;;;;;;;;1808084;77;615661;-85
2022/10/17 06:17:46;;;;;;;21.73;4.27;;;;;;;;;;1817232;77;615855;-84
2022/10/17 06:20:14;;;;;;;27.77;4.70;;;;;;;;;;1809625;77;615769;-82
2022/10/17 06:22:43;;;;;;;21.50;3.83;;;;;;;;;;1817452;77;615770;-86
2022/10/17 06:25:13;;;;;;;21.20;4.13;;;;;;;;;;1809568;77;615694;-85
2022/10/17 06:27:49;;;;;;;23.93;5.07;;;;;;;;;;1817493;77;615807;-85
2022/10/17 06:30:19;;;;;;;20.47;4.33;;;;;;;;;;1809531;77;615587;-84
2022/10/17 06:32:49;;;;;;;21.60;4.30;;;;;;;;;;1767611;79;615771;-85
2022/10/17 06:35:20;;;;;;;26.07;4.83;;;;;;;;;;1808983;77;615724;-85
2022/10/17 06:37:49;;;;;;;27.67;5.03;;;;;;;;;;1817494;77;615790;-85
2022/10/17 06:40:17;;;;;;;24.10;4.77;;;;;;;;;;1810011;77;615798;-85
2022/10/17 06:42:46;;;;;;;24.53;4.23;;;;;;;;;;1817334;77;615688;-84
2022/10/17 06:45:15;;;;;;;29.00;5.07;;;;;;;;;;1809403;77;615771;-84
2022/10/17 06:47:43;;;;;;;21.77;5.27;;;;;;;;;;1817153;77;616024;-83
2022/10/17 06:50:11;;;;;;;19.30;4.30;;;;;;;;;;1808982;77;615827;-85
2022/10/17 06:52:40;;;;;;;25.93;5.17;;;;;;;;;;1816686;77;615693;-83
2022/10/17 06:55:10;;;;;;;28.13;4.93;;;;;;;;;;1809043;77;615843;-84
2022/10/17 06:57:38;;;;;;;27.33;5.07;;;;;;;;;;1817206;77;615868;-85
2022/10/17 07:00:08;;;;;;;20.57;4.07;;;;;;;;;;1811691;77;615724;-84
2022/10/17 07:02:36;;;;;;;28.13;5.00;;;;;;;;;;1767387;79;615732;-83
2022/10/17 07:05:05;;;;;;;23.70;4.83;;;;;;;;;;1817493;77;613735;-85
2022/10/17 07:07:34;;;;;;;22.90;3.87;;;;;;;;;;1817164;77;615664;-84
2022/10/17 07:10:03;;;;;;;21.97;4.43;;;;;;;;;;1818079;77;613668;-85
2022/10/17 07:12:31;;;;;;;24.43;4.20;;;;;;;;;;1809395;77;615689;-84
2022/10/17 07:15:03;;;;;;;19.33;4.40;;;;;;;;;;1817181;77;613839;-85
2022/10/17 07:17:31;;;;;;;19.93;4.40;;;;;;;;;;1809229;77;615822;-85
2022/10/17 07:20:01;;;;;;;15.67;4.27;;;;;;;;;;1816766;77;613824;-85
2022/10/17 07:22:29;;;;;;;16.47;3.80;;;;;;;;;;1809256;77;615754;-84
2022/10/17 07:24:58;;;;;;;24.07;4.10;;;;;;;;;;1816930;77;613856;-85
2022/10/17 07:27:28;;;;;;;21.17;3.97;;;;;;;;;;1760162;79;615754;-84
2022/10/17 07:29:56;;;;;;;21.30;3.97;;;;;;;;;;1816844;77;613643;-85
2022/10/17 07:32:24;;;;;;;25.07;3.73;;;;;;;;;;1808966;77;615850;-84
2022/10/17 07:34:53;;;;;;;18.57;4.30;;;;;;;;;;1816878;77;613835;-85
2022/10/17 07:37:21;;;;;;;21.47;4.43;;;;;;;;;;1808888;77;615745;-85
2022/10/17 07:39:49;;;;;;;19.73;3.83;;;;;;;;;;1816805;77;616122;-84
2022/10/17 07:42:18;;;;;;;25.10;4.53;;;;;;;;;;1809137;77;615591;-84
2022/10/17 07:44:46;;;;;;;20.10;4.40;;;;;;;;;;1816641;77;615815;-85
2022/10/17 07:47:14;;;;;;;17.60;4.27;;;;;;;;;;1809247;77;615275;-84
2022/10/17 07:49:44;;;;;;;19.00;4.23;;;;;;;;;;1816933;77;615796;-85
2022/10/17 07:52:12;;;;;;;20.53;4.00;;;;;;;;;;1809018;77;615863;-84
2022/10/17 07:54:40;;;;;;;20.33;4.13;;;;;;;;;;1816428;77;615797;-85
2022/10/17 07:57:09;;;;;;;21.97;4.13;;;;;;;;;;1809036;77;615761;-84
2022/10/17 07:59:38;;;;;;;21.27;4.30;;;;;;;;;;1816812;77;615823;-85
2022/10/17 08:02:07;;;;;;;18.40;4.40;;;;;;;;;;1823812;76;613735;-85
2022/10/17 08:04:35;;;;;;;17.67;4.23;;;;;;;;;;1767259;78;615754;-83
2022/10/17 08:07:04;;;;;;;17.63;4.20;;;;;;;;;;1817404;77;613932;-84
2022/10/17 08:09:32;;;;;;;22.50;4.33;;;;;;;;;;1817296;77;615893;-84
2022/10/17 08:12:00;;;;;;;20.60;3.70;;;;;;;;;;1817452;77;613793;-85
2022/10/17 08:14:28;;;;;;;20.07;4.20;;;;;;;;;;1809439;77;615862;-85
2022/10/17 08:16:57;;;;;;;13.73;3.90;;;;;;;;;;1817056;77;613644;-84
2022/10/17 08:19:26;;;;;;;18.13;3.43;;;;;;;;;;1809506;77;615694;-83
2022/10/17 08:21:54;;;;;;;17.63;3.70;;;;;;;;;;1817142;77;613973;-85
2022/10/17 08:24:23;;;;;;;23.03;4.33;;;;;;;;;;1809427;77;615665;-84
2022/10/17 08:26:52;;;;;;;11.20;3.60;;;;;;;;;;1817440;77;615608;-84
2022/10/17 08:29:20;;;;;;;19.80;3.63;;;;;;;;;;1809660;77;615747;-85
2022/10/17 08:31:48;;;;;;;17.37;3.33;;;;;;;;;;1817397;77;615829;-84
2022/10/17 08:34:17;;;;;;;17.13;4.07;;;;;;;;;;1809293;77;615698;-85
2022/10/17 08:36:45;;;;;;;16.83;3.87;;;;;;;;;;1817648;77;615784;-83
2022/10/17 08:39:13;;;;;;;17.10;3.70;;;;;;;;;;1809596;77;615850;-84
2022/10/17 08:41:48;;;;;;;24.43;4.63;;;;;;;;;;1817467;77;615731;-85
2022/10/17 08:44:20;;;;;;;12.13;3.00;;;;;;;;;;1809381;77;614851;-84
2022/10/17 08:46:50;;;;;;;14.27;2.90;;;;;;;;;;1817643;77;615981;-85
2022/10/17 08:49:21;;;;;;;14.43;2.90;;;;;;;;;;1809424;77;615799;-84
2022/10/17 08:51:51;;;;;;;15.33;3.40;;;;;;;;;;1817458;77;614869;-85
2022/10/17 08:54:20;;;;;;;13.10;3.07;;;;;;;;;;1809535;77;615755;-85
2022/10/17 08:56:49;;;;;;;15.13;3.43;;;;;;;;;;1817454;77;615977;-85
2022/10/17 08:59:18;;;;;;;16.07;3.27;;;;;;;;;;1809637;77;614817;-84
2022/10/17 09:01:49;;;;;;;14.40;3.40;;;;;;;;;;1817637;77;615669;-84
2022/10/17 09:04:25;;;;;;;19.13;3.43;;;;;;;;;;1809763;77;614843;-85
2022/10/17 09:06:56;;;;;;;16.23;3.17;;;;;;;;;;1817358;77;613727;-85
2022/10/17 09:09:27;;;;;;;11.90;3.13;;;;;;;;;;1809831;77;615649;-84
2022/10/17 09:11:58;;;;;;;15.00;3.47;;;;;;;;;;1817512;77;613857;-85
2022/10/17 09:14:31;;;;;;;17.97;3.33;;;;;;;;;;1810137;77;615738;-87
2022/10/17 09:17:06;;;;;;;14.60;3.53;;;;;;;;;;1817951;77;613777;-84
2022/10/17 09:19:36;;;;;;;18.50;3.23;;;;;;;;;;1816948;77;615668;-84
2022/10/17 09:22:06;;;;;;;19.47;3.63;;;;;;;;;;1817534;77;613977;-84
2022/10/17 09:24:38;;;;;;;15.17;3.30;;;;;;;;;;1817487;77;614576;-84
2022/10/17 09:27:08;;;;;;;15.30;3.87;;;;;;;;;;1817601;77;613096;-85
2022/10/17 09:29:36;;;;;;;13.83;3.50;;;;;;;;;;1817561;77;614644;-87
2022/10/17 09:32:06;;;;;;;13.77;4.10;;;;;;;;;;1817958;77;613995;-85
2022/10/17 09:34:35;;;;;;;16.10;5.77;;;;;;;;;;1817665;77;615730;-85
2022/10/17 09:37:06;;;;;;;17.20;7.40;;;;;;;;;;1818543;77;613829;-85
2022/10/17 09:39:33;;;;;;;16.57;9.13;;;;;;;;;;1818641;77;615856;-86
2022/10/17 09:42:01;;;;;;;22.90;9.93;;;;;;;;;;1818690;77;613808;-85
2022/10/17 09:44:31;;;;;;;18.60;10.03;;;;;;;;;;1810798;77;614863;-85
2022/10/17 09:47:02;;;;;;;13.90;10.10;;;;;;;;;;1818921;77;615872;-86
2022/10/17 09:49:33;;;;;;;17.23;10.63;;;;;;;;;;1810766;76;617901;-86
2022/10/17 09:52:03;;;;;;;11.40;9.50;;;;;;;;;;1818809;77;615215;-85
2022/10/17 09:54:34;;;;;;;15.37;10.73;;;;;;;;;;1810838;77;615913;-86
2022/10/17 09:57:04;;;;;;;13.37;9.60;;;;;;;;;;1817926;77;615944;-87
2022/10/17 09:59:34;;;;;;;11.20;9.90;;;;;;;;;;1819443;77;614790;-89
2022/10/17 10:02:09;;;;;;;13.83;9.87;;;;;;;;;;1821103;77;613893;-87
2022/10/17 10:04:39;;;;;;;11.30;10.10;;;;;;;;;;1820943;77;615698;-89
2022/10/17 10:07:11;;;;;;;12.63;11.20;;;;;;;;;;1810097;77;617735;-86
2022/10/17 10:09:39;;;;;;;12.67;11.33;;;;;;;;;;1818468;77;617837;-87
2022/10/17 10:12:11;;;;;;;12.27;11.07;;;;;;;;;;1810275;77;617742;-86
2022/10/17 10:14:39;;;;;;;11.77;9.83;;;;;;;;;;1818822;77;617936;-85
2022/10/17 10:17:10;;;;;;;14.37;9.90;;;;;;;;;;1811970;77;614949;-86
2022/10/17 10:19:39;;;;;;;10.60;9.60;;;;;;;;;;1817284;77;615648;-85
2022/10/17 10:22:10;;;;;;;16.80;11.00;;;;;;;;;;1813605;77;615838;-85
2022/10/17 10:24:39;;;;;;;12.77;10.77;;;;;;;;;;1817111;77;617840;-87
2022/10/17 10:27:09;;;;;;;14.27;10.17;;;;;;;;;;1811108;77;617828;-84
2022/10/17 10:29:38;;;;;;;11.87;10.83;;;;;;;;;;1817838;75;617121;-86
2022/10/17 10:32:11;;;;;;;12.07;10.87;;;;;;;;;;1818121;77;616037;-84
2022/10/17 10:34:41;;;;;;;12.00;10.77;;;;;;;;;;1817951;77;617031;-86
2022/10/17 10:37:17;;;;;;;11.97;10.70;;;;;;;;;;1808714;77;617851;-85
2022/10/17 10:39:48;;;;;;;14.63;11.00;;;;;;;;;;1816952;77;616991;-84
2022/10/17 10:42:22;;;;;;;11.30;10.20;;;;;;;;;;1809730;77;617019;-84
2022/10/17 10:44:51;;;;;;;15.10;11.07;;;;;;;;;;1817207;77;617999;-84
2022/10/17 10:47:21;;;;;;;11.97;10.77;;;;;;;;;;1809263;77;617842;-85
2022/10/17 10:49:52;;;;;;;12.20;11.00;;;;;;;;;;1816935;77;617841;-84
2022/10/17 10:52:23;;;;;;;11.63;10.67;;;;;;;;;;1759230;79;617814;-86
2022/10/17 10:54:53;;;;;;;12.60;11.23;;;;;;;;;;1816977;77;617753;-85
2022/10/17 10:57:23;;;;;;;11.03;10.13;;;;;;;;;;1808876;77;617792;-86
2022/10/17 10:59:55;;;;;;;11.67;10.67;;;;;;;;;;1817037;77;617832;-86
2022/10/17 11:02:25;;;;;;;12.20;11.03;;;;;;;;;;1810495;77;617542;-84
2022/10/17 11:04:55;;;;;;;11.97;10.83;;;;;;;;;;1818547;77;615817;-85
2022/10/17 11:07:25;;;;;;;11.77;10.80;;;;;;;;;;1809906;76;617944;-87
2022/10/17 11:09:56;;;;;;;11.73;10.40;;;;;;;;;;1817351;77;615809;-86
2022/10/17 11:12:25;;;;;;;12.27;10.83;;;;;;;;;;1809284;77;617814;-84
2022/10/17 11:14:56;;;;;;;12.60;11.37;;;;;;;;;;1817447;77;615902;-86
2022/10/17 11:17:28;;;;;;;12.00;10.97;;;;;;;;;;1809751;77;616954;-87
2022/10/17 11:19:58;;;;;;;12.17;11.07;;;;;;;;;;1817542;77;615995;-84
2022/10/17 11:22:29;;;;;;;11.23;10.33;;;;;;;;;;1809535;77;618211;-84
2022/10/17 11:24:59;;;;;;;11.67;10.67;;;;;;;;;;1818139;77;616013;-85
2022/10/17 11:27:29;;;;;;;12.00;10.80;;;;;;;;;;1809718;77;617824;-84
2022/10/17 11:29:58;;;;;;;12.73;11.67;;;;;;;;;;1818115;77;615846;-85
2022/10/17 11:32:29;;;;;;;11.83;11.00;;;;;;;;;;1809331;77;617908;-85
2022/10/17 11:34:59;;;;;;;12.40;11.40;;;;;;;;;;1817433;77;616080;-85
2022/10/17 11:37:33;;;;;;;12.97;11.67;;;;;;;;;;1809823;76;617698;-84
2022/10/17 11:40:03;;;;;;;11.40;10.60;;;;;;;;;;1817559;77;615977;-85
2022/10/17 11:42:33;;;;;;;11.17;10.23;;;;;;;;;;1809458;77;617855;-85
2022/10/17 11:45:03;;;;;;;11.93;10.97;;;;;;;;;;1817555;77;615901;-84
2022/10/17 11:47:34;;;;;;;11.00;10.10;;;;;;;;;;1817296;77;617941;-83
2022/10/17 11:50:04;;;;;;;11.23;10.30;;;;;;;;;;1817304;77;615898;-85
2022/10/17 11:52:36;;;;;;;10.90;9.90;;;;;;;;;;1817412;77;616899;-86
2022/10/17 11:55:06;;;;;;;10.57;9.87;;;;;;;;;;1817079;77;613847;-86
2022/10/17 11:57:38;;;;;;;11.60;10.50;;;;;;;;;;1817296;77;615716;-86
2022/10/17 12:00:17;;;;;;;12.33;11.23;;;;;;;;;;1817003;77;615948;-85
2022/10/17 12:02:48;;;;;;;10.40;9.50;;;;;;;;;;1817582;77;618029;-85
2022/10/17 12:05:20;;;;;;;10.90;9.80;;;;;;;;;;1809535;77;615726;-84
2022/10/17 12:07:50;;;;;;;10.83;9.83;;;;;;;;;;1817279;77;615813;-85
2022/10/17 12:10:21;;;;;;;11.20;10.40;;;;;;;;;;1809285;77;615797;-84
2022/10/17 12:12:50;;;;;;;11.00;10.20;;;;;;;;;;1816999;77;617704;-85
2022/10/17 12:15:28;;;;;;;10.73;9.77;;;;;;;;;;1809297;77;617941;-84
2022/10/17 12:18:00;;;;;;;11.03;10.03;;;;;;;;;;1817578;77;614045;-84
2022/10/17 12:20:30;;;;;;;12.63;11.50;;;;;;;;;;1809453;77;617025;-85
2022/10/17 12:23:01;;;;;;;12.00;10.97;;;;;;;;;;1817252;77;616018;-86
2022/10/17 12:25:32;;;;;;;11.73;10.60;;;;;;;;;;1809206;77;617811;-85
2022/10/17 12:28:14;;;;;;;12.20;11.10;;;;;;;;;;1817272;77;615968;-84
2022/10/17 12:30:54;;;;;;;11.70;10.70;;;;;;;;;;1817277;77;617830;-85
2022/10/17 12:33:25;;;;;;;10.93;10.03;;;;;;;;;;1809694;77;617765;-85
2022/10/17 12:36:05;;;;;;;11.67;10.67;;;;;;;;;;1817574;77;615185;-85
2022/10/17 12:38:34;;;;;;;11.73;10.73;;;;;;;;;;1814638;77;617709;-85
2022/10/17 12:41:03;;;;;;;11.63;10.43;;;;;;;;;;1817370;77;615931;-86
2022/10/17 12:43:45;;;;;;;12.27;11.20;;;;;;;;;;1808373;76;733473;-85
2022/10/17 12:46:15;;;;;;;12.40;11.47;;;;;;;;;;1809555;77;617705;-85
2022/10/17 12:49:05;;;;;;;13.07;11.97;;;;;;;;;;1815167;76;617787;-86
2022/10/17 12:51:52;;;;;;;10.67;9.97;;;;;;;;;;1817311;77;618002;-86
2022/10/17 12:54:21;;;;;;;10.80;10.13;;;;;;;;;;1809672;77;614915;-87
2022/10/17 12:56:50;;;;;;;11.30;10.20;;;;;;;;;;1817192;77;617852;-87
2022/10/17 12:59:19;;;;;;;10.13;9.30;;;;;;;;;;1809900;77;617722;-86
2022/10/17 13:01:49;;;;;;;9.63;8.77;;;;;;;;;;1817483;77;615844;-86
2022/10/17 13:04:18;;;;;;;10.30;9.40;;;;;;;;;;1810176;77;613446;-85
2022/10/17 13:06:47;;;;;;;10.03;9.17;;;;;;;;;;1817807;77;615756;-86
2022/10/17 13:09:21;;;;;;;10.70;9.73;;;;;;;;;;1809968;77;615678;-86
2022/10/17 13:11:50;;;;;;;10.73;9.77;;;;;;;;;;1817806;77;615811;-85
2022/10/17 13:14:19;;;;;;;10.77;9.77;;;;;;;;;;1809902;77;614656;-86
2022/10/17 13:16:52;;;;;;;10.10;9.20;;;;;;;;;;1817744;77;615818;-86
2022/10/17 13:19:23;;;;;;;10.60;9.70;;;;;;;;;;1779955;78;615701;-87
2022/10/17 13:21:52;;;;;;;10.70;9.77;;;;;;;;;;1788106;78;615790;-85
2022/10/17 13:24:21;;;;;;;10.10;9.20;;;;;;;;;;1780559;78;615710;-88
2022/10/17 13:26:49;;;;;;;10.40;9.40;;;;;;;;;;1788517;78;615795;-85
2022/10/17 13:29:20;;;;;;;10.87;9.87;;;;;;;;;;1781010;78;616053;-86
2022/10/17 13:31:53;;;;;;;11.33;10.33;;;;;;;;;;1788417;78;615835;-86
2022/10/17 13:34:22;;;;;;;10.77;9.90;;;;;;;;;;1780472;78;616592;-86
2022/10/17 13:36:52;;;;;;;10.60;9.80;;;;;;;;;;1788394;78;615694;-85
2022/10/17 13:39:22;;;;;;;10.07;9.30;;;;;;;;;;1780329;78;614928;-86
2022/10/17 13:41:50;;;;;;;12.60;10.07;;;;;;;;;;1788073;78;615728;-87
2022/10/17 13:44:20;;;;;;;10.30;9.57;;;;;;;;;;1780522;78;617688;-87
2022/10/17 13:46:48;;;;;;;10.10;9.20;;;;;;;;;;1788127;78;615596;-87
2022/10/17 13:49:19;;;;;;;12.27;10.20;;;;;;;;;;1779501;78;615638;-87
2022/10/17 13:51:48;;;;;;;11.23;9.80;;;;;;;;;;1787136;78;617029;-86
2022/10/17 13:54:22;;;;;;;10.17;9.30;;;;;;;;;;1780060;78;614868;-85
2022/10/17 13:56:56;;;;;;;11.07;10.07;;;;;;;;;;1787152;78;615629;-86
2022/10/17 13:59:25;;;;;;;11.07;10.20;;;;;;;;;;1780367;78;627721;-85
2022/10/17 14:01:54;;;;;;;11.10;9.67;;;;;;;;;;1787836;78;615872;-86
2022/10/17 14:04:23;;;;;;;11.90;10.93;;;;;;;;;;1780603;78;615537;-86
2022/10/17 14:06:51;;;;;;;11.57;10.53;;;;;;;;;;1791782;78;618011;-86
2022/10/17 14:09:21;;;;;;;11.10;10.20;;;;;;;;;;1734874;80;617818;-87
2022/10/17 14:11:58;;;;;;;11.87;10.30;;;;;;;;;;1787794;78;617780;-86
2022/10/17 14:14:26;;;;;;;11.37;10.10;;;;;;;;;;1780288;78;617842;-86
2022/10/17 14:16:55;;;;;;;11.33;10.40;;;;;;;;;;1787645;78;616007;-85
2022/10/17 14:19:25;;;;;;;12.97;11.30;;;;;;;;;;1780207;77;617721;-85
2022/10/17 14:21:54;;;;;;;11.93;11.03;;;;;;;;;;1787810;78;616107;-88
2022/10/17 14:24:30;;;;;;;12.00;11.03;;;;;;;;;;1780220;78;617822;-86
2022/10/17 14:26:59;;;;;;;12.27;11.07;;;;;;;;;;1787929;78;615900;-85
2022/10/17 14:29:29;;;;;;;13.10;11.80;;;;;;;;;;1780316;78;617867;-85